Time;durP1;ratioP1;P1;durP2;ratioP2;P2;SDS_P1;SDS_P2;PMS_P1;PMS_P2;Temp;Humidity;BMP_temperature;BMP_pressure;BME280_temperature;BME280_humidity;BME280_pressure;Samples;Min_cycle;Max_cycle;Signal;HPM_P1;HPM_P2
2023/06/04 00:01:49;;;;;;;1.83;0.60;;;;;;;13.60;38.80;101948.75;4891520;28;108727;-48
2023/06/04 00:04:14;;;;;;;0.83;0.50;;;;;;;13.56;38.80;101959.28;4891967;28;96904;-47
2023/06/04 00:06:40;;;;;;;0.70;0.40;;;;;;;13.50;39.19;101959.16;4892447;28;96946;-47
2023/06/04 00:09:05;;;;;;;0.60;0.50;;;;;;;13.44;39.21;101952.03;4889711;28;97023;-47
2023/06/04 00:11:33;;;;;;;0.50;0.40;;;;;;;13.39;39.05;101949.94;4891337;28;98069;-47
2023/06/04 00:13:59;;;;;;;1.10;0.67;;;;;;;13.37;39.40;101952.44;4891353;28;97646;-47
2023/06/04 00:16:24;;;;;;;0.53;0.47;;;;;;;13.32;39.24;101947.59;4891535;28;96990;-47
2023/06/04 00:18:49;;;;;;;0.73;0.50;;;;;;;13.30;39.44;101942.53;4891842;28;100813;-47
2023/06/04 00:21:15;;;;;;;0.67;0.53;;;;;;;13.25;39.48;101945.22;4890785;28;97029;-47
2023/06/04 00:23:40;;;;;;;1.00;0.50;;;;;;;13.22;39.78;101937.88;4890301;28;97196;-47
2023/06/04 00:26:05;;;;;;;0.60;0.60;;;;;;;13.20;39.56;101941.13;4888604;28;97220;-47
2023/06/04 00:28:30;;;;;;;1.37;0.50;;;;;;;13.19;39.72;101947.88;4892797;28;102264;-47
2023/06/04 00:30:56;;;;;;;0.80;0.60;;;;;;;13.16;39.78;101939.81;4892239;28;110343;-48
2023/06/04 00:33:21;;;;;;;1.53;0.67;;;;;;;13.15;39.68;101944.56;4892338;28;97696;-48
2023/06/04 00:35:46;;;;;;;0.53;0.50;;;;;;;13.14;39.85;101940.28;4890960;28;97074;-47
2023/06/04 00:38:12;;;;;;;0.70;0.50;;;;;;;13.12;39.98;101942.78;4890269;28;97841;-47
2023/06/04 00:40:37;;;;;;;1.10;0.47;;;;;;;13.10;40.15;101944.47;4906240;28;111903;-47
2023/06/04 00:43:02;;;;;;;0.80;0.60;;;;;;;13.08;40.06;101933.16;4891739;28;98492;-47
2023/06/04 00:45:30;;;;;;;0.77;0.50;;;;;;;13.06;40.21;101944.66;4890614;28;100878;-47
2023/06/04 00:47:56;;;;;;;0.50;0.40;;;;;;;13.00;40.10;101940.25;4892171;28;96788;-47
2023/06/04 00:50:22;;;;;;;1.90;0.60;;;;;;;12.99;40.05;101939.50;4891161;28;97644;-47
2023/06/04 00:52:49;;;;;;;0.83;0.80;;;;;;;12.95;40.16;101935.41;4892837;28;98471;-47
2023/06/04 00:55:18;;;;;;;0.60;0.60;;;;;;;12.88;40.31;101944.84;4889397;28;96948;-47
2023/06/04 00:57:44;;;;;;;1.90;0.60;;;;;;;12.82;40.29;101946.00;4893025;28;96629;-47
2023/06/04 01:00:10;;;;;;;0.50;0.50;;;;;;;12.76;40.50;101948.66;4891948;28;98778;-47
2023/06/04 01:02:38;;;;;;;0.50;0.50;;;;;;;12.72;40.77;101943.31;4891843;28;97406;-47
2023/06/04 01:05:16;;;;;;;3.40;0.70;;;;;;;12.65;40.68;101946.44;4891795;28;97251;-47
2023/06/04 01:07:46;;;;;;;0.60;0.60;;;;;;;12.57;40.78;101942.56;4890799;28;97137;-47
2023/06/04 01:10:12;;;;;;;0.93;0.60;;;;;;;12.60;40.57;101935.31;4888259;28;97779;-47
2023/06/04 01:12:41;;;;;;;0.60;0.50;;;;;;;12.57;40.99;101939.03;4891474;28;98194;-47
2023/06/04 01:15:08;;;;;;;0.60;0.60;;;;;;;12.53;40.77;101953.03;4893549;28;96995;-47
2023/06/04 01:17:41;;;;;;;0.53;0.50;;;;;;;12.51;41.30;101941.69;4890070;28;96798;-47
2023/06/04 01:20:18;;;;;;;0.70;0.70;;;;;;;12.42;41.65;101941.00;4894453;28;98433;-47
2023/06/04 01:22:51;;;;;;;0.73;0.60;;;;;;;12.35;40.83;101946.88;4889418;28;96749;-48
2023/06/04 01:25:23;;;;;;;0.60;0.60;;;;;;;12.28;41.19;101944.47;4889849;28;97098;-47
2023/06/04 01:27:57;;;;;;;0.93;0.70;;;;;;;12.23;41.37;101950.69;4891729;28;97110;-48
2023/06/04 01:30:29;;;;;;;2.10;0.60;;;;;;;12.20;41.17;101957.91;4889929;28;96991;-47
2023/06/04 01:32:55;;;;;;;0.70;0.63;;;;;;;12.15;41.16;101947.50;4891409;28;97405;-47
2023/06/04 01:35:22;;;;;;;2.33;0.63;;;;;;;12.13;41.08;101933.41;4893302;28;97019;-47
2023/06/04 01:37:47;;;;;;;0.60;0.50;;;;;;;12.07;41.22;101934.53;4892943;28;97044;-48
2023/06/04 01:40:13;;;;;;;2.20;0.73;;;;;;;12.03;41.28;101932.72;4890547;28;97194;-48
2023/06/04 01:42:38;;;;;;;1.33;0.50;;;;;;;11.94;41.32;101930.03;4887700;28;97176;-47
2023/06/04 01:45:04;;;;;;;0.97;0.50;;;;;;;11.90;41.50;101929.44;4889501;28;97198;-47
2023/06/04 01:47:30;;;;;;;0.97;0.73;;;;;;;11.86;41.37;101930.88;4889995;28;97394;-50
2023/06/04 01:49:55;;;;;;;0.83;0.60;;;;;;;11.84;41.36;101925.81;4889523;28;97101;-47
2023/06/04 01:52:21;;;;;;;0.60;0.50;;;;;;;11.79;41.54;101928.47;4889920;28;100130;-47
2023/06/04 01:54:48;;;;;;;0.60;0.40;;;;;;;11.75;41.60;101933.41;4893489;28;97117;-47
2023/06/04 01:57:14;;;;;;;0.70;0.60;;;;;;;11.72;41.77;101929.56;4890628;28;96969;-47
2023/06/04 01:59:41;;;;;;;1.23;0.70;;;;;;;11.63;41.83;101921.31;4889876;28;97099;-47
2023/06/04 02:02:06;;;;;;;0.60;0.50;;;;;;;11.62;41.91;101919.03;4890100;28;98520;-47
2023/06/04 02:04:32;;;;;;;0.83;0.50;;;;;;;11.63;41.77;101917.81;4888877;28;97127;-48
2023/06/04 02:06:59;;;;;;;0.57;0.57;;;;;;;11.58;41.83;101916.44;4890766;28;97265;-47
2023/06/04 02:09:25;;;;;;;0.70;0.60;;;;;;;11.53;41.89;101921.84;4889865;28;98238;-47
2023/06/04 02:11:51;;;;;;;0.70;0.60;;;;;;;11.46;42.15;101924.94;4890286;28;98241;-47
2023/06/04 02:14:16;;;;;;;0.70;0.70;;;;;;;11.38;41.92;101916.25;4886810;28;97137;-47
2023/06/04 02:16:41;;;;;;;2.10;0.60;;;;;;;11.31;42.13;101924.88;4888145;28;96854;-47
2023/06/04 02:19:07;;;;;;;0.60;0.60;;;;;;;11.25;42.34;101929.47;4890011;28;105833;-47
2023/06/04 02:21:33;;;;;;;1.07;0.70;;;;;;;11.21;42.44;101928.88;4890675;28;97317;-47
2023/06/04 02:23:58;;;;;;;0.60;0.50;;;;;;;11.15;42.38;101933.50;4890047;28;97043;-48
2023/06/04 02:26:25;;;;;;;0.57;0.50;;;;;;;11.09;42.47;101936.13;4889737;28;97359;-47
2023/06/04 02:28:50;;;;;;;0.60;0.60;;;;;;;11.02;42.53;101925.44;4890085;28;98647;-47
2023/06/04 02:31:15;;;;;;;0.83;0.77;;;;;;;10.97;42.68;101925.28;4889595;28;97100;-47
2023/06/04 02:33:41;;;;;;;0.70;0.60;;;;;;;10.89;42.58;101922.13;4893406;28;97476;-47
2023/06/04 02:36:08;;;;;;;1.00;0.47;;;;;;;10.84;42.60;101947.50;4888466;28;97212;-47
2023/06/04 02:38:34;;;;;;;0.70;0.70;;;;;;;10.85;42.74;101931.75;4889153;28;98579;-49
2023/06/04 02:40:59;;;;;;;1.17;0.70;;;;;;;10.82;42.73;101925.19;4890055;28;97181;-48
2023/06/04 02:43:25;;;;;;;0.60;0.50;;;;;;;10.77;42.82;101931.31;4889896;28;97362;-47
2023/06/04 02:45:50;;;;;;;0.80;0.50;;;;;;;10.76;42.79;101932.53;4889910;28;101028;-47
2023/06/04 02:48:15;;;;;;;0.90;0.80;;;;;;;10.72;42.87;101929.19;4889199;28;100779;-47
2023/06/04 02:50:42;;;;;;;0.80;0.50;;;;;;;10.65;42.95;101929.50;4886752;28;106128;-47
2023/06/04 02:53:07;;;;;;;0.60;0.57;;;;;;;10.57;43.02;101926.28;4889075;28;97035;-47
2023/06/04 02:55:33;;;;;;;0.60;0.50;;;;;;;10.53;43.08;101936.69;4888186;28;97606;-47
2023/06/04 02:57:59;;;;;;;1.13;0.40;;;;;;;10.47;43.27;101937.78;4891883;28;97698;-47
2023/06/04 03:00:25;;;;;;;0.90;0.60;;;;;;;10.41;43.32;101940.41;4887074;28;97162;-47
2023/06/04 03:02:50;;;;;;;0.50;0.50;;;;;;;10.41;43.30;101943.16;4889157;28;97288;-47
2023/06/04 03:05:17;;;;;;;1.00;0.50;;;;;;;10.41;43.43;101951.41;4891962;28;99290;-47
2023/06/04 03:07:44;;;;;;;0.70;0.63;;;;;;;10.40;43.80;101960.88;4888893;28;97361;-47
2023/06/04 03:10:10;;;;;;;1.10;0.87;;;;;;;10.42;43.64;101952.13;4890131;28;97132;-48
2023/06/04 03:12:36;;;;;;;0.60;0.60;;;;;;;10.40;43.59;101951.84;4889254;28;97141;-48
2023/06/04 03:15:03;;;;;;;0.63;0.63;;;;;;;10.36;43.59;101949.25;4888072;28;97197;-47
2023/06/04 03:17:28;;;;;;;0.90;0.50;;;;;;;10.38;43.55;101951.53;4889373;28;96663;-47
2023/06/04 03:19:55;;;;;;;0.50;0.40;;;;;;;10.38;43.57;101946.81;4887702;28;97115;-51
2023/06/04 03:22:21;;;;;;;0.60;0.50;;;;;;;10.38;43.59;101952.31;4889230;28;97268;-47
2023/06/04 03:24:47;;;;;;;0.70;0.60;;;;;;;10.36;43.54;101954.75;4887769;28;97360;-47
2023/06/04 03:27:12;;;;;;;1.03;0.53;;;;;;;10.33;43.50;101943.91;4886377;28;97336;-47
2023/06/04 03:29:37;;;;;;;2.60;0.77;;;;;;;10.31;43.72;101947.09;4889874;28;98626;-47
2023/06/04 03:32:03;;;;;;;0.73;0.60;;;;;;;10.23;43.72;101939.63;4888005;28;97324;-47
2023/06/04 03:34:31;;;;;;;0.70;0.60;;;;;;;10.23;43.94;101943.13;4891704;28;97062;-48
2023/06/04 03:36:57;;;;;;;0.60;0.50;;;;;;;10.26;43.90;101950.47;4892835;28;97682;-47
2023/06/04 03:39:22;;;;;;;1.13;0.60;;;;;;;10.27;43.90;101952.00;4891122;28;97292;-47
2023/06/04 03:41:48;;;;;;;3.23;0.50;;;;;;;10.29;43.80;101952.31;4889211;28;97564;-47
2023/06/04 03:44:14;;;;;;;0.70;0.60;;;;;;;10.28;43.97;101950.78;4893950;28;96852;-47
2023/06/04 03:46:41;;;;;;;0.70;0.60;;;;;;;10.29;43.92;101951.53;4893724;28;96798;-47
2023/06/04 03:49:06;;;;;;;0.50;0.50;;;;;;;10.29;43.98;101955.06;4893123;28;97250;-47
2023/06/04 03:51:32;;;;;;;0.83;0.53;;;;;;;10.27;44.01;101959.47;4889785;28;97436;-47
2023/06/04 03:53:58;;;;;;;0.70;0.70;;;;;;;10.27;44.07;101951.22;4900375;28;98177;-47
2023/06/04 03:56:24;;;;;;;0.60;0.50;;;;;;;10.26;44.04;101956.00;4896875;28;97151;-47
2023/06/04 03:58:50;;;;;;;1.50;0.50;;;;;;;10.24;44.04;101946.66;4891774;28;97414;-47
2023/06/04 04:01:16;;;;;;;0.80;0.60;;;;;;;10.25;44.15;101942.66;4891997;28;97267;-47
2023/06/04 04:03:42;;;;;;;0.70;0.60;;;;;;;10.25;44.17;101946.19;4894040;28;97414;-47
2023/06/04 04:06:10;;;;;;;2.03;1.00;;;;;;;10.25;44.32;101946.19;4895956;28;98173;-47
2023/06/04 04:08:35;;;;;;;0.63;0.50;;;;;;;10.22;44.46;101954.59;4898489;28;97100;-47
2023/06/04 04:11:01;;;;;;;0.83;0.60;;;;;;;10.24;44.40;101954.91;4894751;28;97783;-47
2023/06/04 04:13:26;;;;;;;0.60;0.60;;;;;;;10.26;44.27;101956.00;4896542;28;96854;-47
2023/06/04 04:15:54;;;;;;;0.60;0.50;;;;;;;10.26;44.45;101956.00;4895610;28;97226;-47
2023/06/04 04:18:21;;;;;;;0.60;0.50;;;;;;;10.27;44.42;101952.00;4891211;28;97494;-47
2023/06/04 04:20:47;;;;;;;0.73;0.73;;;;;;;10.27;44.42;101954.75;4895029;28;97056;-47
2023/06/04 04:23:13;;;;;;;0.60;0.60;;;;;;;10.31;44.60;101951.88;4892860;28;96990;-47
2023/06/04 04:25:38;;;;;;;1.07;0.57;;;;;;;10.34;44.78;101948.19;4890143;28;98739;-47
2023/06/04 04:28:06;;;;;;;1.73;0.60;;;;;;;10.36;44.88;101948.47;4890302;28;96981;-47
2023/06/04 04:30:35;;;;;;;1.10;0.70;;;;;;;10.42;44.96;101947.41;4889540;28;97127;-47
2023/06/04 04:33:01;;;;;;;0.90;0.70;;;;;;;10.47;44.98;101952.31;4895514;28;97048;-47
2023/06/04 04:35:27;;;;;;;1.43;0.80;;;;;;;10.54;44.87;101963.00;4890763;28;97303;-47
2023/06/04 04:37:54;;;;;;;1.00;0.60;;;;;;;10.62;44.83;101959.91;4892810;28;97389;-47
2023/06/04 04:40:19;;;;;;;0.60;0.60;;;;;;;10.65;44.87;101948.78;4891443;28;96992;-47
2023/06/04 04:42:44;;;;;;;0.80;0.60;;;;;;;10.68;44.73;101947.09;4893510;28;97636;-47
2023/06/04 04:45:10;;;;;;;0.77;0.60;;;;;;;10.74;44.90;101945.25;4890655;28;97026;-47
2023/06/04 04:47:35;;;;;;;0.70;0.60;;;;;;;10.76;44.90;101943.56;4889036;28;98928;-48
2023/06/04 04:50:01;;;;;;;0.70;0.67;;;;;;;10.81;45.00;101942.91;4891855;28;108123;-47
2023/06/04 04:52:26;;;;;;;0.50;0.50;;;;;;;10.85;45.07;101951.03;4888998;28;97362;-47
2023/06/04 04:54:55;;;;;;;1.43;0.90;;;;;;;10.90;45.03;101953.91;4890463;28;97545;-48
2023/06/04 04:57:21;;;;;;;0.60;0.43;;;;;;;10.96;45.01;101951.31;4891275;28;97252;-47
2023/06/04 04:59:47;;;;;;;0.80;0.60;;;;;;;10.98;45.15;101957.13;4887497;28;97310;-47
2023/06/04 05:02:12;;;;;;;2.03;0.80;;;;;;;11.03;45.16;101957.25;4894897;28;97275;-47
2023/06/04 05:04:37;;;;;;;0.83;0.50;;;;;;;11.08;45.24;101953.09;4888996;28;97659;-47
2023/06/04 05:07:03;;;;;;;0.97;0.50;;;;;;;11.14;45.27;101948.47;4890468;28;97774;-48
2023/06/04 05:09:28;;;;;;;1.47;0.70;;;;;;;11.20;45.32;101946.66;4891757;28;97452;-47
2023/06/04 05:11:53;;;;;;;0.80;0.60;;;;;;;11.27;45.23;101949.03;4892999;28;97075;-47
2023/06/04 05:14:19;;;;;;;0.60;0.53;;;;;;;11.34;45.38;101948.72;4890946;28;97156;-47
2023/06/04 05:16:44;;;;;;;1.27;0.60;;;;;;;11.40;45.29;101949.59;4888374;28;109315;-47
2023/06/04 05:19:10;;;;;;;0.80;0.50;;;;;;;11.48;45.16;101947.28;4887158;28;97556;-47
2023/06/04 05:21:36;;;;;;;0.80;0.80;;;;;;;11.56;45.45;101943.72;4891414;28;96890;-47
2023/06/04 05:24:02;;;;;;;0.50;0.40;;;;;;;11.66;45.40;101960.97;4889989;28;97843;-47
2023/06/04 05:26:29;;;;;;;0.70;0.50;;;;;;;11.75;45.35;101950.69;4890411;28;97085;-47
2023/06/04 05:28:55;;;;;;;0.50;0.47;;;;;;;11.83;45.32;101951.88;4889837;28;97256;-47
2023/06/04 05:31:21;;;;;;;0.60;0.50;;;;;;;11.94;45.51;101962.38;4890554;28;97527;-47
2023/06/04 05:33:47;;;;;;;0.50;0.40;;;;;;;12.04;45.66;101958.31;4889933;28;98561;-47
2023/06/04 05:36:13;;;;;;;0.67;0.67;;;;;;;12.16;45.61;101953.78;4886699;28;98561;-47
2023/06/04 05:38:39;;;;;;;0.80;0.70;;;;;;;12.29;45.59;101954.31;4890045;28;97416;-47
2023/06/04 05:41:04;;;;;;;0.60;0.50;;;;;;;12.41;45.77;101965.06;4890112;28;97091;-47
2023/06/04 05:43:29;;;;;;;0.60;0.50;;;;;;;12.52;45.65;101961.75;4889692;28;97844;-47
2023/06/04 05:45:55;;;;;;;0.80;0.47;;;;;;;12.63;45.73;101956.44;4891394;28;96751;-47
2023/06/04 05:48:21;;;;;;;0.87;0.60;;;;;;;12.75;45.94;101958.91;4893097;28;97071;-47
2023/06/04 05:50:47;;;;;;;0.50;0.50;;;;;;;12.90;45.80;101960.94;4892930;28;97230;-48
2023/06/04 05:53:12;;;;;;;2.00;0.57;;;;;;;13.04;45.78;101958.16;4890668;28;96772;-47
2023/06/04 05:55:38;;;;;;;1.70;0.50;;;;;;;13.18;45.93;101957.44;4891879;28;97134;-47
2023/06/04 05:58:03;;;;;;;0.90;0.50;;;;;;;13.34;45.77;101965.22;4889763;28;97130;-47
2023/06/04 06:00:28;;;;;;;0.60;0.50;;;;;;;13.45;45.91;101956.34;4888146;28;96988;-47
2023/06/04 06:02:55;;;;;;;0.70;0.50;;;;;;;13.61;45.82;101961.34;4893105;28;96814;-47
2023/06/04 06:05:20;;;;;;;0.60;0.50;;;;;;;13.74;46.00;101970.06;4889789;28;97860;-47
2023/06/04 06:07:46;;;;;;;0.70;0.60;;;;;;;13.88;45.74;101957.44;4889139;28;96848;-47
2023/06/04 06:10:13;;;;;;;0.73;0.73;;;;;;;14.03;45.82;101964.44;4892896;28;97341;-47
2023/06/04 06:12:38;;;;;;;1.27;0.70;;;;;;;14.21;45.78;101966.16;4887300;28;97417;-47
2023/06/04 06:15:05;;;;;;;0.80;0.47;;;;;;;14.33;45.74;101967.09;4888967;28;96729;-47
2023/06/04 06:17:30;;;;;;;0.90;0.80;;;;;;;14.48;45.46;101962.22;4887514;28;97029;-47
2023/06/04 06:19:56;;;;;;;0.60;0.60;;;;;;;14.67;45.17;101974.50;4888832;28;96911;-47
2023/06/04 06:22:22;;;;;;;0.70;0.53;;;;;;;14.84;45.09;101973.41;4890468;28;97525;-48
2023/06/04 06:24:50;;;;;;;3.73;0.50;;;;;;;15.02;44.98;101978.63;4891613;28;96752;-47
2023/06/04 06:27:17;;;;;;;0.60;0.53;;;;;;;15.18;44.86;101977.22;4890175;28;96698;-47
2023/06/04 06:29:43;;;;;;;0.70;0.50;;;;;;;15.32;44.73;101981.09;4889751;28;97115;-48
2023/06/04 06:32:09;;;;;;;0.73;0.73;;;;;;;15.47;44.62;101984.53;4891598;28;97504;-48
2023/06/04 06:34:35;;;;;;;0.60;0.50;;;;;;;15.59;44.41;101981.34;4889723;28;97264;-47
2023/06/04 06:37:00;;;;;;;0.67;0.57;;;;;;;15.77;44.23;101982.19;4889166;28;97278;-47
2023/06/04 06:39:26;;;;;;;0.80;0.80;;;;;;;15.93;44.26;101987.06;4891047;28;97083;-47
2023/06/04 06:41:51;;;;;;;0.90;0.73;;;;;;;16.10;44.11;101982.34;4889282;28;99377;-47
2023/06/04 06:44:17;;;;;;;0.67;0.60;;;;;;;16.25;43.70;101985.72;4886812;28;97324;-48
2023/06/04 06:46:42;;;;;;;0.77;0.63;;;;;;;16.40;43.32;101984.22;4890948;28;97174;-47
2023/06/04 06:49:08;;;;;;;3.60;0.97;;;;;;;16.59;43.19;101986.59;4889374;28;97054;-47
2023/06/04 06:51:33;;;;;;;1.47;0.60;;;;;;;16.75;43.21;101986.63;4885936;28;97170;-47
2023/06/04 06:53:58;;;;;;;1.87;0.70;;;;;;;16.87;43.31;101987.41;4890267;28;97180;-47
2023/06/04 06:56:24;;;;;;;0.70;0.70;;;;;;;16.99;43.01;101988.94;4891383;28;98124;-47
2023/06/04 06:58:51;;;;;;;0.60;0.60;;;;;;;17.15;43.06;101993.72;4889468;28;97078;-47
2023/06/04 07:01:16;;;;;;;1.23;0.73;;;;;;;17.30;42.91;101982.38;4889145;28;97164;-47
2023/06/04 07:03:41;;;;;;;1.07;1.00;;;;;;;17.43;42.44;101991.69;4889882;28;97408;-47
2023/06/04 07:06:07;;;;;;;0.70;0.60;;;;;;;17.59;42.12;101987.41;4889433;28;96948;-47
2023/06/04 07:08:32;;;;;;;0.63;0.60;;;;;;;17.76;42.04;101988.88;4888356;28;100846;-47
2023/06/04 07:10:59;;;;;;;0.90;0.50;;;;;;;17.92;41.62;101990.09;4893604;28;97024;-47
2023/06/04 07:13:24;;;;;;;0.60;0.50;;;;;;;18.08;41.51;101982.97;4893305;28;98338;-47
2023/06/04 07:15:50;;;;;;;0.80;0.60;;;;;;;18.22;41.49;101984.66;4892208;28;96684;-47
2023/06/04 07:18:15;;;;;;;0.70;0.57;;;;;;;18.37;41.50;101993.50;4894491;28;97240;-47
2023/06/04 07:20:40;;;;;;;0.70;0.60;;;;;;;18.43;40.99;101985.84;4892094;28;97529;-48
2023/06/04 07:23:06;;;;;;;0.90;0.80;;;;;;;18.53;41.00;101989.88;4892826;28;97308;-47
2023/06/04 07:25:32;;;;;;;0.80;0.70;;;;;;;18.64;40.80;101987.00;4893326;28;97132;-47
2023/06/04 07:27:58;;;;;;;0.83;0.83;;;;;;;18.78;40.45;101994.28;4890917;28;96922;-47
2023/06/04 07:30:26;;;;;;;1.13;0.60;;;;;;;18.90;40.34;101992.91;4891581;28;98466;-47
2023/06/04 07:32:51;;;;;;;0.73;0.73;;;;;;;19.04;40.37;101985.47;4891797;28;100700;-47
2023/06/04 07:35:17;;;;;;;0.80;0.60;;;;;;;19.12;39.45;101983.63;4893615;28;97260;-48
2023/06/04 07:37:47;;;;;;;0.70;0.63;;;;;;;19.23;39.25;101989.09;4892837;28;97121;-47
2023/06/04 07:40:13;;;;;;;1.90;0.63;;;;;;;19.35;38.78;101988.50;4892423;28;97634;-47
2023/06/04 07:42:39;;;;;;;0.60;0.50;;;;;;;19.49;38.48;101997.78;4894179;28;97018;-47
2023/06/04 07:45:05;;;;;;;1.07;0.60;;;;;;;19.60;38.11;101986.50;4892327;28;97279;-48
2023/06/04 07:47:30;;;;;;;0.90;0.53;;;;;;;19.72;37.98;101989.94;4891570;28;97258;-48
2023/06/04 07:49:55;;;;;;;0.80;0.60;;;;;;;19.81;37.60;101992.38;4891813;28;110429;-48
2023/06/04 07:52:21;;;;;;;0.70;0.60;;;;;;;19.91;37.26;101990.75;4893039;28;108474;-48
2023/06/04 07:54:46;;;;;;;0.60;0.60;;;;;;;20.04;37.24;101988.06;4891748;28;96759;-48
2023/06/04 07:57:12;;;;;;;1.03;0.63;;;;;;;20.15;37.09;101982.31;4892634;28;97195;-48
2023/06/04 07:59:37;;;;;;;0.77;0.60;;;;;;;20.29;36.84;101989.53;4891756;28;98819;-47
2023/06/04 08:02:03;;;;;;;0.83;0.80;;;;;;;20.36;36.49;101993.75;4888799;28;97017;-47
2023/06/04 08:04:29;;;;;;;1.03;0.47;;;;;;;20.42;36.31;101998.00;4890772;28;97738;-47
2023/06/04 08:06:55;;;;;;;0.60;0.50;;;;;;;20.53;36.13;101988.72;4890316;28;97327;-48
2023/06/04 08:09:20;;;;;;;3.17;0.70;;;;;;;20.66;35.91;101983.94;4891397;28;97586;-47
2023/06/04 08:11:45;;;;;;;1.03;0.63;;;;;;;20.75;35.59;101991.94;4892123;28;97278;-48
2023/06/04 08:14:12;;;;;;;0.93;0.60;;;;;;;20.80;35.59;101993.91;4890624;28;97105;-48
2023/06/04 08:16:38;;;;;;;0.60;0.50;;;;;;;20.91;35.39;101999.31;4891765;28;96940;-47
2023/06/04 08:19:03;;;;;;;1.00;0.90;;;;;;;21.00;35.15;102000.22;4890360;28;97233;-48
2023/06/04 08:21:28;;;;;;;1.00;0.50;;;;;;;21.08;35.17;101989.94;4892496;28;98301;-47
2023/06/04 08:23:55;;;;;;;0.97;0.57;;;;;;;21.19;34.91;101992.53;4908608;28;97097;-48
2023/06/04 08:26:20;;;;;;;0.90;0.50;;;;;;;21.26;34.92;101997.53;4893984;28;97070;-47
2023/06/04 08:28:49;;;;;;;0.70;0.60;;;;;;;21.37;32.94;102005.72;4890181;28;96863;-48
2023/06/04 08:31:14;;;;;;;0.60;0.50;;;;;;;21.42;33.94;102014.03;4897132;28;97442;-48
2023/06/04 08:33:40;;;;;;;0.60;0.40;;;;;;;21.51;33.83;102010.81;4891513;28;96834;-48
2023/06/04 08:36:06;;;;;;;0.60;0.40;;;;;;;21.67;33.89;102006.19;4891249;28;96986;-48
2023/06/04 08:38:32;;;;;;;0.70;0.60;;;;;;;21.84;33.72;102017.13;4889926;28;97861;-47
2023/06/04 08:41:07;;;;;;;0.70;0.50;;;;;;;21.92;31.63;102012.38;4893203;28;97432;-47
2023/06/04 08:43:33;;;;;;;0.60;0.50;;;;;;;21.95;33.02;102011.31;4890437;28;97136;-48
2023/06/04 08:46:01;;;;;;;1.13;0.53;;;;;;;22.02;33.21;102014.22;4892560;28;97242;-48
2023/06/04 08:48:29;;;;;;;2.50;0.90;;;;;;;22.15;33.26;102002.97;4892398;28;98652;-47
2023/06/04 08:50:59;;;;;;;0.60;0.50;;;;;;;22.34;32.94;102008.47;4893114;28;97126;-48
2023/06/04 08:53:24;;;;;;;3.00;0.50;;;;;;;22.42;32.76;102006.50;4889411;28;97470;-48
2023/06/04 08:55:52;;;;;;;0.90;0.73;;;;;;;22.53;32.85;102000.66;4891190;28;96940;-48
2023/06/04 08:58:19;;;;;;;0.60;0.50;;;;;;;22.66;32.80;102013.91;4892133;28;97077;-48
2023/06/04 09:00:44;;;;;;;0.80;0.60;;;;;;;22.70;32.53;102011.50;4888085;28;97430;-48
2023/06/04 09:03:12;;;;;;;1.13;0.80;;;;;;;22.82;32.32;101998.75;4890565;28;97326;-48
2023/06/04 09:05:39;;;;;;;0.77;0.60;;;;;;;22.95;32.10;101995.88;4889856;28;96944;-48
2023/06/04 09:08:08;;;;;;;0.90;0.57;;;;;;;23.10;32.01;101996.78;4893085;28;97406;-48
2023/06/04 09:10:37;;;;;;;2.13;0.53;;;;;;;23.24;32.10;101991.81;4889830;28;97290;-48
2023/06/04 09:13:03;;;;;;;2.00;0.50;;;;;;;23.25;30.92;102001.78;4891663;28;96718;-49
2023/06/04 09:15:29;;;;;;;0.83;0.70;;;;;;;23.21;31.20;102003.41;4892098;28;97525;-47
2023/06/04 09:17:54;;;;;;;0.70;0.60;;;;;;;23.36;31.26;102009.19;4891842;28;97163;-51
2023/06/04 09:20:23;;;;;;;0.80;0.70;;;;;;;23.49;30.87;102000.66;4883066;28;96839;-47
2023/06/04 09:22:49;;;;;;;0.70;0.60;;;;;;;23.69;31.04;101997.06;4890059;28;97066;-48
2023/06/04 09:25:24;;;;;;;1.10;0.57;;;;;;;23.84;29.83;102009.16;4891912;28;97425;-48
2023/06/04 09:27:50;;;;;;;1.03;0.63;;;;;;;23.93;30.55;102005.09;4890345;28;97003;-48
2023/06/04 09:30:16;;;;;;;1.10;0.70;;;;;;;24.05;30.40;102005.56;4892148;28;97338;-48
2023/06/04 09:32:41;;;;;;;1.97;0.77;;;;;;;24.03;29.97;102002.50;4891057;28;97293;-48
2023/06/04 09:35:18;;;;;;;1.57;0.70;;;;;;;24.09;28.05;102001.06;4888680;28;97556;-48
2023/06/04 09:37:55;;;;;;;0.80;0.70;;;;;;;24.21;28.43;101995.88;4891125;28;97617;-48
2023/06/04 09:40:20;;;;;;;0.90;0.60;;;;;;;24.29;29.65;102005.09;4892371;28;97301;-48
2023/06/04 09:42:54;;;;;;;0.70;0.57;;;;;;;24.38;29.33;102004.56;4893319;28;97279;-48
2023/06/04 09:45:30;;;;;;;1.40;0.67;;;;;;;24.51;28.42;101998.78;4888954;28;97187;-48
2023/06/04 09:47:57;;;;;;;0.70;0.50;;;;;;;24.64;29.38;101995.81;4893262;28;98652;-48
2023/06/04 09:50:28;;;;;;;0.90;0.80;;;;;;;24.77;28.68;102004.13;4891554;28;97181;-48
2023/06/04 09:52:54;;;;;;;1.67;0.77;;;;;;;24.71;29.14;102003.53;4894277;28;97390;-48
2023/06/04 09:55:20;;;;;;;1.40;0.50;;;;;;;24.85;29.31;101990.84;4891366;28;101093;-48
2023/06/04 09:57:52;;;;;;;1.83;0.67;;;;;;;25.00;27.71;101998.56;4888785;28;96976;-48
2023/06/04 10:00:23;;;;;;;0.70;0.60;;;;;;;24.98;28.69;101990.66;4888901;28;97234;-48
2023/06/04 10:02:55;;;;;;;1.10;0.60;;;;;;;24.99;28.45;101989.34;4890250;28;97282;-48
2023/06/04 10:05:21;;;;;;;0.83;0.50;;;;;;;25.17;28.57;101995.94;4889129;28;97221;-48
2023/06/04 10:07:51;;;;;;;1.00;0.50;;;;;;;25.20;27.75;101997.63;4889647;28;97336;-48
2023/06/04 10:10:20;;;;;;;0.70;0.60;;;;;;;25.30;27.98;101995.75;4892785;28;97160;-49
2023/06/04 10:12:51;;;;;;;1.43;0.70;;;;;;;25.41;27.59;101998.19;4890390;28;97215;-49
2023/06/04 10:15:17;;;;;;;1.10;0.90;;;;;;;25.49;28.28;101992.56;4891075;28;97318;-49
2023/06/04 10:17:43;;;;;;;0.70;0.60;;;;;;;25.52;27.51;101989.38;4890696;28;97929;-48
2023/06/04 10:20:08;;;;;;;0.70;0.60;;;;;;;25.47;27.77;101984.66;4890743;28;97715;-49
2023/06/04 10:22:35;;;;;;;4.47;0.70;;;;;;;25.44;27.35;101990.69;4892964;28;96897;-49
2023/06/04 10:25:02;;;;;;;0.70;0.60;;;;;;;25.41;27.32;101994.59;4890703;28;97174;-48
2023/06/04 10:27:28;;;;;;;0.80;0.70;;;;;;;25.42;27.53;101993.28;4889276;28;98045;-48
2023/06/04 10:29:54;;;;;;;2.87;0.70;;;;;;;25.46;27.51;101988.06;4889418;28;97343;-48
2023/06/04 10:32:19;;;;;;;0.80;0.63;;;;;;;25.49;27.48;101986.94;4889599;28;96789;-48
2023/06/04 10:34:46;;;;;;;0.70;0.60;;;;;;;25.57;27.48;101993.31;4890825;28;97003;-48
2023/06/04 10:37:22;;;;;;;0.60;0.50;;;;;;;25.69;26.42;102000.03;4890479;28;98407;-48
2023/06/04 10:39:52;;;;;;;0.97;0.60;;;;;;;25.82;26.80;101986.47;4889619;28;97666;-49
2023/06/04 10:42:18;;;;;;;1.50;1.40;;;;;;;25.95;27.33;101982.69;4891894;28;97251;-48
2023/06/04 10:44:48;;;;;;;1.10;0.93;;;;;;;25.93;26.90;101988.88;4892183;28;97175;-48
2023/06/04 10:47:19;;;;;;;1.37;0.80;;;;;;;25.98;26.24;101987.19;4891607;28;97014;-49
2023/06/04 10:49:44;;;;;;;1.33;0.60;;;;;;;26.04;27.19;101988.47;4891838;28;96977;-47
2023/06/04 10:52:13;;;;;;;0.70;0.60;;;;;;;26.14;26.89;101983.03;4891655;28;104075;-48
2023/06/04 10:54:38;;;;;;;0.80;0.63;;;;;;;26.09;27.05;101969.13;4892590;28;97492;-47
2023/06/04 10:57:15;;;;;;;2.43;0.57;;;;;;;26.23;26.32;101976.78;4891533;28;99091;-48
2023/06/04 10:59:40;;;;;;;0.90;0.70;;;;;;;26.30;27.02;101983.72;4892898;28;98422;-49
2023/06/04 11:02:07;;;;;;;0.80;0.60;;;;;;;26.41;26.98;101988.91;4893166;28;97050;-50
2023/06/04 11:04:32;;;;;;;0.70;0.57;;;;;;;26.50;26.77;101980.59;4894651;28;97866;-51
2023/06/04 11:07:08;;;;;;;1.30;0.97;;;;;;;26.52;26.19;101986.41;4891971;28;97913;-49
2023/06/04 11:09:35;;;;;;;0.70;0.60;;;;;;;26.42;26.24;101984.78;4891713;28;97510;-48
2023/06/04 11:12:01;;;;;;;0.80;0.70;;;;;;;26.33;26.56;101974.09;4890669;28;96831;-48
2023/06/04 11:14:27;;;;;;;0.73;0.67;;;;;;;26.39;26.65;101980.25;4894874;28;96947;-49
2023/06/04 11:16:52;;;;;;;1.10;0.53;;;;;;;26.54;26.40;101978.13;4893617;28;97582;-48
2023/06/04 11:19:18;;;;;;;0.70;0.60;;;;;;;26.40;26.04;101976.13;4892697;28;97415;-48
2023/06/04 11:21:44;;;;;;;0.80;0.70;;;;;;;26.28;25.65;101975.03;4893521;28;96629;-49